sensor_id;sensor_type;location;lat;lon;timestamp;temperature;humidity
20070;DHT22;10195;50.868;4.382;2023-03-31T00:02:03;13.20;99.90
20070;DHT22;10195;50.868;4.382;2023-03-31T00:04:39;13.20;99.90
20070;DHT22;10195;50.868;4.382;2023-03-31T00:07:14;13.20;99.90
20070;DHT22;10195;50.868;4.382;2023-03-31T00:09:41;13.20;99.90
20070;DHT22;10195;50.868;4.382;2023-03-31T00:12:11;13.20;99.90
20070;DHT22;10195;50.868;4.382;2023-03-31T00:14:38;13.10;99.90
20070;DHT22;10195;50.868;4.382;2023-03-31T00:17:06;13.10;99.90
20070;DHT22;10195;50.868;4.382;2023-03-31T00:19:31;13.10;99.90
20070;DHT22;10195;50.868;4.382;2023-03-31T00:21:58;13.10;99.90
20070;DHT22;10195;50.868;4.382;2023-03-31T00:24:27;12.90;99.90
20070;DHT22;10195;50.868;4.382;2023-03-31T00:27:00;12.90;99.90
20070;DHT22;10195;50.868;4.382;2023-03-31T00:29:27;12.80;99.90
20070;DHT22;10195;50.868;4.382;2023-03-31T00:31:55;12.80;99.90
20070;DHT22;10195;50.868;4.382;2023-03-31T00:34:24;12.90;99.90
20070;DHT22;10195;50.868;4.382;2023-03-31T00:36:50;12.90;99.90
20070;DHT22;10195;50.868;4.382;2023-03-31T00:39:17;12.80;99.90
20070;DHT22;10195;50.868;4.382;2023-03-31T00:41:44;12.80;99.90
20070;DHT22;10195;50.868;4.382;2023-03-31T00:44:21;12.80;99.90
20070;DHT22;10195;50.868;4.382;2023-03-31T00:49:32;12.90;99.90
20070;DHT22;10195;50.868;4.382;2023-03-31T00:54:48;12.80;99.90
20070;DHT22;10195;50.868;4.382;2023-03-31T00:57:15;12.70;99.90
20070;DHT22;10195;50.868;4.382;2023-03-31T00:59:50;12.70;99.90
20070;DHT22;10195;50.868;4.382;2023-03-31T01:02:17;12.60;99.90
20070;DHT22;10195;50.868;4.382;2023-03-31T01:04:51;12.60;99.90
20070;DHT22;10195;50.868;4.382;2023-03-31T01:07:40;12.50;99.90
20070;DHT22;10195;50.868;4.382;2023-03-31T01:10:07;12.40;99.90
20070;DHT22;10195;50.868;4.382;2023-03-31T01:12:37;12.30;99.90
20070;DHT22;10195;50.868;4.382;2023-03-31T01:15:05;12.20;99.90
20070;DHT22;10195;50.868;4.382;2023-03-31T01:17:31;12.20;99.90
20070;DHT22;10195;50.868;4.382;2023-03-31T01:26:05;12.40;99.90
20070;DHT22;10195;50.868;4.382;2023-03-31T01:31:38;12.30;99.90
20070;DHT22;10195;50.868;4.382;2023-03-31T01:39:45;12.10;99.90
20070;DHT22;10195;50.868;4.382;2023-03-31T01:45:18;12.20;99.90
20070;DHT22;10195;50.868;4.382;2023-03-31T01:48:16;12.20;99.90
20070;DHT22;10195;50.868;4.382;2023-03-31T01:50:56;12.20;99.90
20070;DHT22;10195;50.868;4.382;2023-03-31T01:56:40;12.20;99.90
20070;DHT22;10195;50.868;4.382;2023-03-31T01:59:12;12.20;99.90
20070;DHT22;10195;50.868;4.382;2023-03-31T02:01:43;12.20;99.90
20070;DHT22;10195;50.868;4.382;2023-03-31T02:04:21;12.20;99.90
20070;DHT22;10195;50.868;4.382;2023-03-31T02:06:54;12.20;99.90
20070;DHT22;10195;50.868;4.382;2023-03-31T02:09:34;12.10;99.90
20070;DHT22;10195;50.868;4.382;2023-03-31T02:12:03;12.20;99.90
20070;DHT22;10195;50.868;4.382;2023-03-31T02:14:31;12.10;99.90
20070;DHT22;10195;50.868;4.382;2023-03-31T02:16:58;11.90;99.90
20070;DHT22;10195;50.868;4.382;2023-03-31T02:19:34;11.90;99.90
20070;DHT22;10195;50.868;4.382;2023-03-31T02:22:01;11.90;99.90
20070;DHT22;10195;50.868;4.382;2023-03-31T02:24:30;11.80;99.90
20070;DHT22;10195;50.868;4.382;2023-03-31T02:27:17;11.90;99.90
20070;DHT22;10195;50.868;4.382;2023-03-31T02:29:45;11.90;99.90
20070;DHT22;10195;50.868;4.382;2023-03-31T02:32:31;11.90;99.90
20070;DHT22;10195;50.868;4.382;2023-03-31T02:35:00;11.90;99.90
20070;DHT22;10195;50.868;4.382;2023-03-31T02:37:27;11.90;99.90
20070;DHT22;10195;50.868;4.382;2023-03-31T02:39:56;11.90;99.90
20070;DHT22;10195;50.868;4.382;2023-03-31T02:42:23;11.90;99.90
20070;DHT22;10195;50.868;4.382;2023-03-31T02:44:50;11.90;99.90
20070;DHT22;10195;50.868;4.382;2023-03-31T02:47:17;11.90;99.90
20070;DHT22;10195;50.868;4.382;2023-03-31T02:49:53;12.00;99.90
20070;DHT22;10195;50.868;4.382;2023-03-31T02:52:32;12.00;99.90
20070;DHT22;10195;50.868;4.382;2023-03-31T02:55:09;11.90;99.90
20070;DHT22;10195;50.868;4.382;2023-03-31T03:01:14;11.80;99.90
20070;DHT22;10195;50.868;4.382;2023-03-31T03:15:20;11.90;99.90
20070;DHT22;10195;50.868;4.382;2023-03-31T03:17:49;12.00;99.90
20070;DHT22;10195;50.868;4.382;2023-03-31T03:20:18;12.00;99.90
20070;DHT22;10195;50.868;4.382;2023-03-31T03:22:44;12.00;99.90
20070;DHT22;10195;50.868;4.382;2023-03-31T03:25:11;11.90;99.90
20070;DHT22;10195;50.868;4.382;2023-03-31T03:27:38;11.90;99.90
20070;DHT22;10195;50.868;4.382;2023-03-31T03:30:06;11.90;99.90
20070;DHT22;10195;50.868;4.382;2023-03-31T03:32:32;12.00;99.90
20070;DHT22;10195;50.868;4.382;2023-03-31T03:35:02;11.90;99.90
20070;DHT22;10195;50.868;4.382;2023-03-31T03:37:29;11.90;99.90
20070;DHT22;10195;50.868;4.382;2023-03-31T03:39:55;12.00;99.90
20070;DHT22;10195;50.868;4.382;2023-03-31T03:42:21;11.80;99.90
20070;DHT22;10195;50.868;4.382;2023-03-31T03:44:47;11.70;99.90
20070;DHT22;10195;50.868;4.382;2023-03-31T03:47:13;11.70;99.90
20070;DHT22;10195;50.868;4.382;2023-03-31T03:49:38;11.70;99.90
20070;DHT22;10195;50.868;4.382;2023-03-31T03:52:04;11.60;99.90
20070;DHT22;10195;50.868;4.382;2023-03-31T03:54:30;11.60;99.90
20070;DHT22;10195;50.868;4.382;2023-03-31T03:56:56;11.50;99.90
20070;DHT22;10195;50.868;4.382;2023-03-31T03:59:22;11.40;99.90
20070;DHT22;10195;50.868;4.382;2023-03-31T04:01:47;11.30;99.90
20070;DHT22;10195;50.868;4.382;2023-03-31T04:04:13;11.40;99.90
20070;DHT22;10195;50.868;4.382;2023-03-31T04:06:39;11.30;99.90
20070;DHT22;10195;50.868;4.382;2023-03-31T04:09:05;11.30;99.90
20070;DHT22;10195;50.868;4.382;2023-03-31T04:11:30;11.30;99.90
20070;DHT22;10195;50.868;4.382;2023-03-31T04:13:56;11.20;99.90
20070;DHT22;10195;50.868;4.382;2023-03-31T04:16:22;11.20;99.90
20070;DHT22;10195;50.868;4.382;2023-03-31T04:18:51;11.20;99.90
20070;DHT22;10195;50.868;4.382;2023-03-31T04:21:17;11.20;99.90
20070;DHT22;10195;50.868;4.382;2023-03-31T04:23:51;11.30;99.90
20070;DHT22;10195;50.868;4.382;2023-03-31T04:26:24;11.30;99.90
20070;DHT22;10195;50.868;4.382;2023-03-31T04:28:56;11.30;99.90
20070;DHT22;10195;50.868;4.382;2023-03-31T04:31:27;11.30;99.90
20070;DHT22;10195;50.868;4.382;2023-03-31T04:33:55;11.40;99.90
20070;DHT22;10195;50.868;4.382;2023-03-31T04:36:25;11.40;99.90
20070;DHT22;10195;50.868;4.382;2023-03-31T04:38:51;11.30;99.90
20070;DHT22;10195;50.868;4.382;2023-03-31T04:41:21;11.40;99.90
20070;DHT22;10195;50.868;4.382;2023-03-31T04:43:46;11.40;99.90
20070;DHT22;10195;50.868;4.382;2023-03-31T04:46:12;11.40;99.90
20070;DHT22;10195;50.868;4.382;2023-03-31T04:48:38;11.50;99.90
20070;DHT22;10195;50.868;4.382;2023-03-31T04:51:04;11.50;99.90
20070;DHT22;10195;50.868;4.382;2023-03-31T04:53:30;11.50;99.90
20070;DHT22;10195;50.868;4.382;2023-03-31T04:55:56;11.50;99.90
20070;DHT22;10195;50.868;4.382;2023-03-31T04:58:22;11.60;99.90
20070;DHT22;10195;50.868;4.382;2023-03-31T05:00:47;11.70;99.90
20070;DHT22;10195;50.868;4.382;2023-03-31T05:03:13;11.80;99.90
20070;DHT22;10195;50.868;4.382;2023-03-31T05:05:39;11.80;99.90
20070;DHT22;10195;50.868;4.382;2023-03-31T05:08:05;11.70;99.90
20070;DHT22;10195;50.868;4.382;2023-03-31T05:10:31;11.80;99.90
20070;DHT22;10195;50.868;4.382;2023-03-31T05:12:57;11.70;99.90
20070;DHT22;10195;50.868;4.382;2023-03-31T05:15:22;11.70;99.90
20070;DHT22;10195;50.868;4.382;2023-03-31T05:17:51;11.80;99.90
20070;DHT22;10195;50.868;4.382;2023-03-31T05:20:18;11.70;99.90
20070;DHT22;10195;50.868;4.382;2023-03-31T05:22:45;11.70;99.90
20070;DHT22;10195;50.868;4.382;2023-03-31T05:25:13;11.70;99.90
20070;DHT22;10195;50.868;4.382;2023-03-31T05:27:45;11.60;99.90
20070;DHT22;10195;50.868;4.382;2023-03-31T05:30:16;11.50;99.90
20070;DHT22;10195;50.868;4.382;2023-03-31T05:32:42;11.60;99.90
20070;DHT22;10195;50.868;4.382;2023-03-31T05:35:09;11.60;99.90
20070;DHT22;10195;50.868;4.382;2023-03-31T05:37:35;11.70;99.90
20070;DHT22;10195;50.868;4.382;2023-03-31T05:40:01;11.60;99.90
20070;DHT22;10195;50.868;4.382;2023-03-31T05:42:29;11.60;99.90
20070;DHT22;10195;50.868;4.382;2023-03-31T05:44:55;11.60;99.90
20070;DHT22;10195;50.868;4.382;2023-03-31T05:47:21;11.70;99.90
20070;DHT22;10195;50.868;4.382;2023-03-31T05:49:47;11.80;99.90
20070;DHT22;10195;50.868;4.382;2023-03-31T05:52:13;11.80;99.90
20070;DHT22;10195;50.868;4.382;2023-03-31T05:54:39;11.90;99.90
20070;DHT22;10195;50.868;4.382;2023-03-31T05:57:05;11.90;99.90
20070;DHT22;10195;50.868;4.382;2023-03-31T05:59:31;12.00;99.90
20070;DHT22;10195;50.868;4.382;2023-03-31T06:01:56;12.10;99.90
20070;DHT22;10195;50.868;4.382;2023-03-31T06:04:22;12.10;99.90
20070;DHT22;10195;50.868;4.382;2023-03-31T06:06:48;11.90;99.90
20070;DHT22;10195;50.868;4.382;2023-03-31T06:09:15;12.00;99.90
20070;DHT22;10195;50.868;4.382;2023-03-31T06:11:41;12.00;99.90
20070;DHT22;10195;50.868;4.382;2023-03-31T06:14:07;12.00;99.90
20070;DHT22;10195;50.868;4.382;2023-03-31T06:16:32;12.00;99.90
20070;DHT22;10195;50.868;4.382;2023-03-31T06:18:58;12.20;99.90
20070;DHT22;10195;50.868;4.382;2023-03-31T06:21:24;12.20;99.90
20070;DHT22;10195;50.868;4.382;2023-03-31T06:23:50;12.30;99.90
20070;DHT22;10195;50.868;4.382;2023-03-31T06:26:19;12.40;99.90
20070;DHT22;10195;50.868;4.382;2023-03-31T06:28:46;12.40;99.90
20070;DHT22;10195;50.868;4.382;2023-03-31T06:31:14;12.40;99.90
20070;DHT22;10195;50.868;4.382;2023-03-31T06:33:42;12.50;99.90
20070;DHT22;10195;50.868;4.382;2023-03-31T06:36:09;12.50;99.90
20070;DHT22;10195;50.868;4.382;2023-03-31T06:38:36;12.40;99.90
20070;DHT22;10195;50.868;4.382;2023-03-31T06:41:03;12.50;99.90
20070;DHT22;10195;50.868;4.382;2023-03-31T06:43:29;12.60;99.90
20070;DHT22;10195;50.868;4.382;2023-03-31T06:45:55;12.80;99.90
20070;DHT22;10195;50.868;4.382;2023-03-31T06:48:24;12.80;99.90
20070;DHT22;10195;50.868;4.382;2023-03-31T06:50:51;12.90;99.90
20070;DHT22;10195;50.868;4.382;2023-03-31T06:53:17;13.20;99.90
20070;DHT22;10195;50.868;4.382;2023-03-31T06:55:43;13.20;99.90
20070;DHT22;10195;50.868;4.382;2023-03-31T06:58:09;13.20;99.90
20070;DHT22;10195;50.868;4.382;2023-03-31T07:00:36;13.10;99.90
20070;DHT22;10195;50.868;4.382;2023-03-31T07:03:03;13.20;99.90
20070;DHT22;10195;50.868;4.382;2023-03-31T07:05:29;13.20;99.90
20070;DHT22;10195;50.868;4.382;2023-03-31T07:07:57;13.20;99.90
20070;DHT22;10195;50.868;4.382;2023-03-31T07:10:25;13.20;99.90
20070;DHT22;10195;50.868;4.382;2023-03-31T07:12:51;13.20;99.90
20070;DHT22;10195;50.868;4.382;2023-03-31T07:15:17;13.30;99.90
20070;DHT22;10195;50.868;4.382;2023-03-31T07:17:43;13.30;99.90
20070;DHT22;10195;50.868;4.382;2023-03-31T07:20:13;13.40;99.90
20070;DHT22;10195;50.868;4.382;2023-03-31T07:22:43;13.50;99.90
20070;DHT22;10195;50.868;4.382;2023-03-31T07:25:11;13.40;99.90
20070;DHT22;10195;50.868;4.382;2023-03-31T07:27:37;13.20;99.90
20070;DHT22;10195;50.868;4.382;2023-03-31T07:30:05;13.30;99.90
20070;DHT22;10195;50.868;4.382;2023-03-31T07:32:30;13.30;99.90
20070;DHT22;10195;50.868;4.382;2023-03-31T07:34:57;13.30;99.90
20070;DHT22;10195;50.868;4.382;2023-03-31T07:37:23;13.30;99.90
20070;DHT22;10195;50.868;4.382;2023-03-31T07:39:49;13.20;99.90
20070;DHT22;10195;50.868;4.382;2023-03-31T07:42:14;13.10;99.90
20070;DHT22;10195;50.868;4.382;2023-03-31T07:44:40;12.90;99.90
20070;DHT22;10195;50.868;4.382;2023-03-31T07:47:06;12.90;99.90
20070;DHT22;10195;50.868;4.382;2023-03-31T07:49:33;12.90;99.90
20070;DHT22;10195;50.868;4.382;2023-03-31T07:51:59;12.90;99.90
20070;DHT22;10195;50.868;4.382;2023-03-31T07:54:25;13.00;99.90
20070;DHT22;10195;50.868;4.382;2023-03-31T07:56:51;13.00;99.90
20070;DHT22;10195;50.868;4.382;2023-03-31T07:59:17;13.00;99.90
20070;DHT22;10195;50.868;4.382;2023-03-31T08:01:43;12.90;99.90
20070;DHT22;10195;50.868;4.382;2023-03-31T08:04:10;12.90;99.90
20070;DHT22;10195;50.868;4.382;2023-03-31T08:06:36;12.90;99.90
20070;DHT22;10195;50.868;4.382;2023-03-31T08:09:03;13.00;99.90
20070;DHT22;10195;50.868;4.382;2023-03-31T08:11:29;13.00;99.90
20070;DHT22;10195;50.868;4.382;2023-03-31T08:13:55;13.00;99.90
20070;DHT22;10195;50.868;4.382;2023-03-31T08:16:21;13.20;99.90
20070;DHT22;10195;50.868;4.382;2023-03-31T08:18:46;13.20;99.90
20070;DHT22;10195;50.868;4.382;2023-03-31T08:21:12;13.30;99.90
20070;DHT22;10195;50.868;4.382;2023-03-31T08:23:38;13.30;99.90
20070;DHT22;10195;50.868;4.382;2023-03-31T08:26:22;13.40;99.90
20070;DHT22;10195;50.868;4.382;2023-03-31T08:28:50;13.60;99.90
20070;DHT22;10195;50.868;4.382;2023-03-31T08:31:17;13.60;99.90
20070;DHT22;10195;50.868;4.382;2023-03-31T08:33:44;13.40;99.90
20070;DHT22;10195;50.868;4.382;2023-03-31T08:36:11;13.50;99.90
20070;DHT22;10195;50.868;4.382;2023-03-31T08:38:37;13.60;99.90
20070;DHT22;10195;50.868;4.382;2023-03-31T08:41:05;13.50;99.90
20070;DHT22;10195;50.868;4.382;2023-03-31T08:43:42;13.30;99.90
20070;DHT22;10195;50.868;4.382;2023-03-31T08:46:14;13.40;99.90
20070;DHT22;10195;50.868;4.382;2023-03-31T08:48:45;13.40;99.90
20070;DHT22;10195;50.868;4.382;2023-03-31T08:53:58;13.60;99.90
20070;DHT22;10195;50.868;4.382;2023-03-31T08:56:28;13.70;99.90
20070;DHT22;10195;50.868;4.382;2023-03-31T08:58:54;14.00;99.90
20070;DHT22;10195;50.868;4.382;2023-03-31T09:01:45;14.00;99.90
20070;DHT22;10195;50.868;4.382;2023-03-31T09:04:39;13.90;99.90
20070;DHT22;10195;50.868;4.382;2023-03-31T09:18:30;13.60;99.90
20070;DHT22;10195;50.868;4.382;2023-03-31T09:21:17;13.90;99.90
20070;DHT22;10195;50.868;4.382;2023-03-31T09:26:46;13.90;99.90
20070;DHT22;10195;50.868;4.382;2023-03-31T09:31:46;14.00;99.90
20070;DHT22;10195;50.868;4.382;2023-03-31T09:34:15;14.00;99.90
20070;DHT22;10195;50.868;4.382;2023-03-31T09:36:42;14.10;99.90
20070;DHT22;10195;50.868;4.382;2023-03-31T09:39:12;14.30;99.90
20070;DHT22;10195;50.868;4.382;2023-03-31T09:41:42;14.30;99.90
20070;DHT22;10195;50.868;4.382;2023-03-31T09:44:22;14.40;99.90
20070;DHT22;10195;50.868;4.382;2023-03-31T09:46:49;14.10;99.90
20070;DHT22;10195;50.868;4.382;2023-03-31T09:49:21;13.80;99.90
20070;DHT22;10195;50.868;4.382;2023-03-31T09:51:52;13.90;99.90
20070;DHT22;10195;50.868;4.382;2023-03-31T09:54:25;13.90;99.90
20070;DHT22;10195;50.868;4.382;2023-03-31T09:56:56;14.00;99.90
20070;DHT22;10195;50.868;4.382;2023-03-31T09:59:33;13.90;99.90
20070;DHT22;10195;50.868;4.382;2023-03-31T10:02:03;13.80;99.90
20070;DHT22;10195;50.868;4.382;2023-03-31T10:04:32;13.70;99.90
20070;DHT22;10195;50.868;4.382;2023-03-31T10:07:00;13.70;99.90
20070;DHT22;10195;50.868;4.382;2023-03-31T10:09:30;13.70;99.90
20070;DHT22;10195;50.868;4.382;2023-03-31T10:12:01;13.60;99.90
20070;DHT22;10195;50.868;4.382;2023-03-31T10:14:37;13.60;99.90
20070;DHT22;10195;50.868;4.382;2023-03-31T10:17:05;13.70;99.90
20070;DHT22;10195;50.868;4.382;2023-03-31T10:19:35;13.90;99.90
20070;DHT22;10195;50.868;4.382;2023-03-31T10:24:44;13.50;99.90
20070;DHT22;10195;50.868;4.382;2023-03-31T10:27:27;13.60;99.90
20070;DHT22;10195;50.868;4.382;2023-03-31T10:30:01;13.60;99.90
20070;DHT22;10195;50.868;4.382;2023-03-31T10:32:30;13.70;99.90
20070;DHT22;10195;50.868;4.382;2023-03-31T10:35:04;13.70;99.90
20070;DHT22;10195;50.868;4.382;2023-03-31T10:37:31;13.70;99.90
20070;DHT22;10195;50.868;4.382;2023-03-31T10:39:57;13.80;99.90
20070;DHT22;10195;50.868;4.382;2023-03-31T10:42:25;14.00;99.90
20070;DHT22;10195;50.868;4.382;2023-03-31T10:45:23;14.00;99.90
20070;DHT22;10195;50.868;4.382;2023-03-31T10:47:53;14.10;99.90
20070;DHT22;10195;50.868;4.382;2023-03-31T10:50:26;14.00;99.90
20070;DHT22;10195;50.868;4.382;2023-03-31T10:53:04;13.90;99.90
20070;DHT22;10195;50.868;4.382;2023-03-31T10:55:36;14.10;99.90
20070;DHT22;10195;50.868;4.382;2023-03-31T11:01:03;14.30;99.90
20070;DHT22;10195;50.868;4.382;2023-03-31T11:03:52;14.50;99.90
20070;DHT22;10195;50.868;4.382;2023-03-31T11:06:44;14.50;99.90
20070;DHT22;10195;50.868;4.382;2023-03-31T11:15:16;13.80;99.90
20070;DHT22;10195;50.868;4.382;2023-03-31T11:20:56;14.20;99.90
20070;DHT22;10195;50.868;4.382;2023-03-31T11:23:41;14.50;99.90
20070;DHT22;10195;50.868;4.382;2023-03-31T11:27:12;14.40;99.90
20070;DHT22;10195;50.868;4.382;2023-03-31T11:31:56;14.40;99.90
20070;DHT22;10195;50.868;4.382;2023-03-31T11:37:19;14.50;99.90
20070;DHT22;10195;50.868;4.382;2023-03-31T11:39:54;14.50;99.90
20070;DHT22;10195;50.868;4.382;2023-03-31T11:45:27;14.50;99.90
20070;DHT22;10195;50.868;4.382;2023-03-31T11:47:58;14.60;99.90
20070;DHT22;10195;50.868;4.382;2023-03-31T11:50:31;14.60;99.90
20070;DHT22;10195;50.868;4.382;2023-03-31T11:53:24;14.70;99.90
20070;DHT22;10195;50.868;4.382;2023-03-31T11:55:53;14.50;99.90
20070;DHT22;10195;50.868;4.382;2023-03-31T11:58:29;14.50;99.90
20070;DHT22;10195;50.868;4.382;2023-03-31T12:01:21;14.30;99.90
20070;DHT22;10195;50.868;4.382;2023-03-31T12:06:49;14.40;99.90
20070;DHT22;10195;50.868;4.382;2023-03-31T12:12:32;14.00;99.90
20070;DHT22;10195;50.868;4.382;2023-03-31T12:15:10;13.90;99.90
20070;DHT22;10195;50.868;4.382;2023-03-31T12:17:37;13.80;99.90
20070;DHT22;10195;50.868;4.382;2023-03-31T12:20:17;13.70;99.90
20070;DHT22;10195;50.868;4.382;2023-03-31T12:22:47;13.50;99.90
20070;DHT22;10195;50.868;4.382;2023-03-31T12:25:15;13.50;99.90
20070;DHT22;10195;50.868;4.382;2023-03-31T12:27:45;13.30;99.90
20070;DHT22;10195;50.868;4.382;2023-03-31T12:30:32;13.00;99.90
20070;DHT22;10195;50.868;4.382;2023-03-31T12:38:23;13.00;99.90
20070;DHT22;10195;50.868;4.382;2023-03-31T12:46:25;13.40;99.90
20070;DHT22;10195;50.868;4.382;2023-03-31T12:54:58;13.20;99.90
20070;DHT22;10195;50.868;4.382;2023-03-31T12:57:27;13.00;99.90
20070;DHT22;10195;50.868;4.382;2023-03-31T13:02:41;13.50;99.90
20070;DHT22;10195;50.868;4.382;2023-03-31T13:05:45;13.60;99.90
20070;DHT22;10195;50.868;4.382;2023-03-31T13:11:20;13.70;99.90
20070;DHT22;10195;50.868;4.382;2023-03-31T13:16:42;13.80;99.90
20070;DHT22;10195;50.868;4.382;2023-03-31T13:19:25;13.80;99.90
20070;DHT22;10195;50.868;4.382;2023-03-31T13:21:59;13.70;99.90
20070;DHT22;10195;50.868;4.382;2023-03-31T13:24:27;13.60;99.90
20070;DHT22;10195;50.868;4.382;2023-03-31T13:26:54;13.70;99.90
20070;DHT22;10195;50.868;4.382;2023-03-31T13:29:41;13.80;99.90
20070;DHT22;10195;50.868;4.382;2023-03-31T13:35:01;13.50;99.90
20070;DHT22;10195;50.868;4.382;2023-03-31T13:43:27;13.30;99.90
20070;DHT22;10195;50.868;4.382;2023-03-31T13:51:40;13.00;99.90
20070;DHT22;10195;50.868;4.382;2023-03-31T14:00:18;12.80;99.90
20070;DHT22;10195;50.868;4.382;2023-03-31T14:10:34;12.80;99.90
20070;DHT22;10195;50.868;4.382;2023-03-31T14:13:23;12.80;99.90
20070;DHT22;10195;50.868;4.382;2023-03-31T14:15:52;12.90;99.90
20070;DHT22;10195;50.868;4.382;2023-03-31T14:18:28;12.90;99.90
20070;DHT22;10195;50.868;4.382;2023-03-31T14:23:35;13.10;99.90
20070;DHT22;10195;50.868;4.382;2023-03-31T14:28:54;13.00;99.90
20070;DHT22;10195;50.868;4.382;2023-03-31T14:31:37;13.00;99.90
20070;DHT22;10195;50.868;4.382;2023-03-31T14:37:11;12.90;99.90
20070;DHT22;10195;50.868;4.382;2023-03-31T14:39:43;12.90;99.90
20070;DHT22;10195;50.868;4.382;2023-03-31T14:42:17;13.00;99.90
20070;DHT22;10195;50.868;4.382;2023-03-31T14:44:43;13.10;99.90
20070;DHT22;10195;50.868;4.382;2023-03-31T14:47:19;13.10;99.90
20070;DHT22;10195;50.868;4.382;2023-03-31T14:49:45;13.30;99.90
20070;DHT22;10195;50.868;4.382;2023-03-31T14:52:19;13.10;99.90
20070;DHT22;10195;50.868;4.382;2023-03-31T14:54:48;13.10;99.90
20070;DHT22;10195;50.868;4.382;2023-03-31T14:57:19;13.20;99.90
20070;DHT22;10195;50.868;4.382;2023-03-31T14:59:50;13.30;99.90
20070;DHT22;10195;50.868;4.382;2023-03-31T15:02:24;13.00;99.90
20070;DHT22;10195;50.868;4.382;2023-03-31T15:04:55;12.80;99.90
20070;DHT22;10195;50.868;4.382;2023-03-31T15:07:22;12.80;99.90
20070;DHT22;10195;50.868;4.382;2023-03-31T15:09:49;12.60;99.90
20070;DHT22;10195;50.868;4.382;2023-03-31T15:12:18;12.70;99.90
20070;DHT22;10195;50.868;4.382;2023-03-31T15:14:54;12.60;99.90
20070;DHT22;10195;50.868;4.382;2023-03-31T15:17:29;12.60;99.90
20070;DHT22;10195;50.868;4.382;2023-03-31T15:19:59;12.60;99.90
20070;DHT22;10195;50.868;4.382;2023-03-31T15:22:27;12.50;99.90
20070;DHT22;10195;50.868;4.382;2023-03-31T15:24:54;12.60;99.90
20070;DHT22;10195;50.868;4.382;2023-03-31T15:27:36;12.70;99.90
20070;DHT22;10195;50.868;4.382;2023-03-31T15:30:07;12.80;99.90
20070;DHT22;10195;50.868;4.382;2023-03-31T15:32:38;12.70;99.90
20070;DHT22;10195;50.868;4.382;2023-03-31T15:35:06;12.80;99.90
20070;DHT22;10195;50.868;4.382;2023-03-31T15:37:39;12.70;99.90
20070;DHT22;10195;50.868;4.382;2023-03-31T15:40:21;12.70;99.90
20070;DHT22;10195;50.868;4.382;2023-03-31T15:42:49;12.50;99.90
20070;DHT22;10195;50.868;4.382;2023-03-31T15:45:48;12.50;99.90
20070;DHT22;10195;50.868;4.382;2023-03-31T15:48:22;12.60;99.90
20070;DHT22;10195;50.868;4.382;2023-03-31T15:50:48;12.60;99.90
20070;DHT22;10195;50.868;4.382;2023-03-31T15:53:24;12.50;99.90
20070;DHT22;10195;50.868;4.382;2023-03-31T15:55:54;12.50;99.90
20070;DHT22;10195;50.868;4.382;2023-03-31T15:58:24;12.60;99.90
20070;DHT22;10195;50.868;4.382;2023-03-31T16:01:09;12.60;99.90
20070;DHT22;10195;50.868;4.382;2023-03-31T16:03:40;12.60;99.90
20070;DHT22;10195;50.868;4.382;2023-03-31T16:08:57;12.50;99.90
20070;DHT22;10195;50.868;4.382;2023-03-31T16:11:32;12.40;99.90
20070;DHT22;10195;50.868;4.382;2023-03-31T16:14:00;12.30;99.90
20070;DHT22;10195;50.868;4.382;2023-03-31T16:16:30;12.20;99.90
20070;DHT22;10195;50.868;4.382;2023-03-31T16:19:02;12.20;99.90
20070;DHT22;10195;50.868;4.382;2023-03-31T16:21:37;12.10;99.90
20070;DHT22;10195;50.868;4.382;2023-03-31T16:24:04;12.10;99.90
20070;DHT22;10195;50.868;4.382;2023-03-31T16:26:30;12.10;99.90
20070;DHT22;10195;50.868;4.382;2023-03-31T16:28:56;12.10;99.90
20070;DHT22;10195;50.868;4.382;2023-03-31T16:31:37;12.00;99.90
20070;DHT22;10195;50.868;4.382;2023-03-31T16:34:06;12.00;99.90
20070;DHT22;10195;50.868;4.382;2023-03-31T16:36:32;12.00;99.90
20070;DHT22;10195;50.868;4.382;2023-03-31T16:38:58;12.00;99.90
20070;DHT22;10195;50.868;4.382;2023-03-31T16:41:27;12.00;99.90
20070;DHT22;10195;50.868;4.382;2023-03-31T16:43:53;12.00;99.90
20070;DHT22;10195;50.868;4.382;2023-03-31T16:46:20;11.90;99.90
20070;DHT22;10195;50.868;4.382;2023-03-31T16:48:46;11.90;99.90
20070;DHT22;10195;50.868;4.382;2023-03-31T16:51:12;11.80;99.90
20070;DHT22;10195;50.868;4.382;2023-03-31T16:53:38;11.80;99.90
20070;DHT22;10195;50.868;4.382;2023-03-31T16:56:06;11.90;99.90
20070;DHT22;10195;50.868;4.382;2023-03-31T16:58:33;11.80;99.90
20070;DHT22;10195;50.868;4.382;2023-03-31T17:01:00;11.80;99.90
20070;DHT22;10195;50.868;4.382;2023-03-31T17:03:26;11.80;99.90
20070;DHT22;10195;50.868;4.382;2023-03-31T17:05:53;11.80;99.90
20070;DHT22;10195;50.868;4.382;2023-03-31T17:08:22;11.70;99.90
20070;DHT22;10195;50.868;4.382;2023-03-31T17:10:52;11.70;99.90
20070;DHT22;10195;50.868;4.382;2023-03-31T17:13:20;11.60;99.90
20070;DHT22;10195;50.868;4.382;2023-03-31T17:15:46;11.60;99.90
20070;DHT22;10195;50.868;4.382;2023-03-31T17:18:12;11.70;99.90
20070;DHT22;10195;50.868;4.382;2023-03-31T17:20:38;11.80;99.90
20070;DHT22;10195;50.868;4.382;2023-03-31T17:23:03;11.70;99.90
20070;DHT22;10195;50.868;4.382;2023-03-31T17:25:29;11.70;99.90
20070;DHT22;10195;50.868;4.382;2023-03-31T17:27:55;11.70;99.90
20070;DHT22;10195;50.868;4.382;2023-03-31T17:30:22;11.70;99.90
20070;DHT22;10195;50.868;4.382;2023-03-31T17:32:48;11.70;99.90
20070;DHT22;10195;50.868;4.382;2023-03-31T17:35:13;11.60;99.90
20070;DHT22;10195;50.868;4.382;2023-03-31T17:37:46;11.60;99.90
20070;DHT22;10195;50.868;4.382;2023-03-31T17:40:15;11.60;99.90
20070;DHT22;10195;50.868;4.382;2023-03-31T17:42:41;11.60;99.90
20070;DHT22;10195;50.868;4.382;2023-03-31T17:45:08;11.50;99.90
20070;DHT22;10195;50.868;4.382;2023-03-31T17:47:33;11.40;99.90
20070;DHT22;10195;50.868;4.382;2023-03-31T17:49:59;11.30;99.90
20070;DHT22;10195;50.868;4.382;2023-03-31T17:52:25;11.30;99.90
20070;DHT22;10195;50.868;4.382;2023-03-31T17:54:52;11.30;99.90
20070;DHT22;10195;50.868;4.382;2023-03-31T17:57:17;11.30;99.90
20070;DHT22;10195;50.868;4.382;2023-03-31T17:59:43;11.30;99.90
20070;DHT22;10195;50.868;4.382;2023-03-31T18:02:12;11.30;99.90
20070;DHT22;10195;50.868;4.382;2023-03-31T18:04:40;11.30;99.90
20070;DHT22;10195;50.868;4.382;2023-03-31T18:07:06;11.30;99.90
20070;DHT22;10195;50.868;4.382;2023-03-31T18:09:33;11.30;99.90
20070;DHT22;10195;50.868;4.382;2023-03-31T18:11:59;11.30;99.90
20070;DHT22;10195;50.868;4.382;2023-03-31T18:14:26;11.20;99.90
20070;DHT22;10195;50.868;4.382;2023-03-31T18:16:52;11.20;99.90
20070;DHT22;10195;50.868;4.382;2023-03-31T18:19:17;11.20;99.90
20070;DHT22;10195;50.868;4.382;2023-03-31T18:21:43;11.30;99.90
20070;DHT22;10195;50.868;4.382;2023-03-31T18:24:09;11.20;99.90